Wise, VA

12:29 AM EDT on May 21, 2018 (GMT -0400)
Lonesome Pine

Weather History for KLNP - January, 2013

Change the Weather History Date:

Monday, January 28, 2013

  Actual Average Record
Temperature  
Mean Temperature 44 °F -  
Max Temperature 50 °F 39 °F 62 °F (1999)
Min Temperature 37 °F 24 °F 1 °F (2000)
Degree Days  
Heating Degree Days 22    
Moisture  
Dew Point 41 °F    
Average Humidity 90    
Maximum Humidity 100    
Minimum Humidity 76    
Precipitation  
Precipitation 0.03 in - - ()
Sea Level Pressure  
Sea Level Pressure 30.25 in    
Wind  
Wind Speed 12 mph (SW)    
Max Wind Speed 22 mph    
Max Gust Speed 32 mph    
Visibility 9 miles    
Events Rain    
Averages and records for this station are not official NWS values.
T = Trace of Precipitation, MM = Missing Value Source: NWS Daily Summary

Daily Weather History Graph

Daily Weather History Graph

Search for Another Location

Airport or City:

Astronomy

Jan. 28, 2013 Rise Set
Actual Time 7:35 AM EST 5:51 PM EST
Civil Twilight 7:07 AM EST 6:18 PM EST
Nautical Twilight 6:36 AM EST 6:50 PM EST
Astronomical Twilight 6:06 AM EST 7:20 PM EST
Moon 7:40 PM EST (1/28) 8:03 AM EST (1/28)
Length of Visible Light 11h 10m
Length of Day
10h 15m
Full, 98% of the Moon is Illuminated
Jan 28
Full
Feb 3
Last Quarter
Feb 10
New
Feb 17
First Quarter
Feb 25
Full

Hourly Weather History & Observations

Time (EST) Temp. Windchill Dew Point Humidity Pressure Visibility Wind Dir Wind Speed Gust Speed Precip Events Conditions
12:15 AM 37.4 °F 33.8 °F 33.8 °F 87% 30.28 in 10.0 mi SSW 4.6 mph - N/A   Overcast
12:35 AM 37.4 °F 30.8 °F 33.8 °F 87% 30.28 in 10.0 mi SW 9.2 mph - N/A   Overcast
12:55 AM 37.4 °F 29.8 °F 33.8 °F 87% 30.28 in 10.0 mi SW 11.5 mph - N/A   Overcast
1:15 AM 37.4 °F 30.8 °F 33.8 °F 87% 30.28 in 10.0 mi SW 9.2 mph - N/A   Overcast
1:35 AM 37.4 °F 30.8 °F 33.8 °F 87% 30.28 in 10.0 mi SSW 9.2 mph - N/A   Overcast
1:55 AM 37.4 °F 32.1 °F 33.8 °F 87% 30.28 in 10.0 mi SSW 6.9 mph - N/A   Overcast
2:15 AM 37.4 °F 30.3 °F 33.8 °F 87% 30.28 in 10.0 mi SSW 10.4 mph - N/A   Overcast
2:35 AM 37.4 °F 30.3 °F 33.8 °F 87% 30.28 in 10.0 mi SW 10.4 mph - N/A   Light Drizzle
2:55 AM 37.4 °F 30.8 °F 33.8 °F 87% 30.28 in 10.0 mi SW 9.2 mph - N/A   Overcast
3:15 AM 37.4 °F 33.8 °F 33.8 °F 87% 30.28 in 10.0 mi SW 4.6 mph - N/A   Overcast
3:35 AM 37.4 °F 30.8 °F 33.8 °F 87% 30.28 in 10.0 mi SW 9.2 mph - N/A   Overcast
3:55 AM 37.4 °F 31.4 °F 33.8 °F 87% 30.28 in 10.0 mi SW 8.1 mph - N/A   Overcast
4:15 AM 37.4 °F 33.8 °F 33.8 °F 87% 30.28 in 10.0 mi SW 4.6 mph - N/A   Overcast
4:35 AM 37.4 °F 33.8 °F 33.8 °F 87% 30.28 in 10.0 mi SSW 4.6 mph - N/A   Overcast
4:55 AM 37.4 °F 33.8 °F 33.8 °F 87% 30.28 in 10.0 mi WSW 4.6 mph - N/A   Overcast
5:15 AM 39.2 °F 33.0 °F 33.8 °F 81% 30.28 in 10.0 mi SW 9.2 mph - N/A   Overcast
5:35 AM 39.2 °F 32.5 °F 33.8 °F 81% 30.28 in 10.0 mi SW 10.4 mph - N/A   Mostly Cloudy
5:55 AM 41.0 °F 33.9 °F 33.8 °F 76% 30.29 in 10.0 mi WSW 12.7 mph - N/A   Overcast
6:15 AM 41.0 °F 33.9 °F 33.8 °F 76% 30.29 in 10.0 mi WSW 12.7 mph - N/A   Overcast
6:35 AM 41.0 °F 34.7 °F 33.8 °F 76% 30.29 in 10.0 mi SW 10.4 mph - N/A   Mostly Cloudy
6:55 AM 41.0 °F 34.3 °F 33.8 °F 76% 30.30 in 10.0 mi WSW 11.5 mph - N/A   Clear
7:15 AM 39.2 °F 34.2 °F 33.8 °F 81% 30.29 in 10.0 mi South 6.9 mph - N/A   Clear
7:35 AM 39.2 °F 31.2 °F 33.8 °F 81% 30.30 in 10.0 mi SW 13.8 mph - N/A   Scattered Clouds
7:55 AM 41.0 °F 34.7 °F 33.8 °F 76% 30.30 in 10.0 mi SW 10.4 mph - N/A   Overcast
8:15 AM 39.2 °F 31.2 °F 33.8 °F 81% 30.29 in 10.0 mi SW 13.8 mph - N/A   Scattered Clouds
8:35 AM 41.0 °F 33.1 °F 35.6 °F 81% 30.29 in 10.0 mi SW 15.0 mph - N/A   Clear
8:55 AM 42.8 °F 35.1 °F 35.6 °F 76% 30.29 in 10.0 mi SW 16.1 mph 20.7 mph N/A   Clear
9:15 AM 44.6 °F 37.4 °F 39.2 °F 81% 30.30 in 10.0 mi WSW 16.1 mph - N/A   Clear
9:35 AM 44.6 °F 37.8 °F 41.0 °F 87% 30.29 in 10.0 mi SW 15.0 mph 24.2 mph N/A   Scattered Clouds
9:55 AM 46.4 °F 39.0 °F 41.0 °F 81% 30.29 in 10.0 mi WSW 19.6 mph 25.3 mph N/A   Scattered Clouds
10:15 AM 46.4 °F 39.2 °F 41.0 °F 81% 30.28 in 10.0 mi SW 18.4 mph 26.5 mph N/A   Mostly Cloudy
10:35 AM 46.4 °F 39.2 °F 42.8 °F 87% 30.29 in 10.0 mi SW 18.4 mph 26.5 mph N/A   Overcast
10:55 AM 46.4 °F 39.0 °F 41.0 °F 81% 30.29 in 10.0 mi WSW 19.6 mph 24.2 mph N/A   Overcast
11:15 AM 46.4 °F 39.5 °F 41.0 °F 81% 30.28 in 10.0 mi WSW 17.3 mph 23.0 mph N/A   Overcast
11:35 AM 46.4 °F 39.5 °F 41.0 °F 81% 30.27 in 10.0 mi WSW 17.3 mph 23.0 mph N/A   Overcast
11:55 AM 46.4 °F 39.5 °F 41.0 °F 81% 30.27 in 10.0 mi WSW 17.3 mph - N/A   Overcast
12:15 PM 46.4 °F 39.0 °F 41.0 °F 81% 30.26 in 10.0 mi WSW 19.6 mph - N/A   Overcast
12:35 PM 46.4 °F 39.8 °F 42.8 °F 87% 30.25 in 10.0 mi SW 16.1 mph - N/A   Overcast
1:15 PM 50.0 °F - 44.6 °F 82% 30.23 in 10.0 mi WSW 19.6 mph 27.6 mph N/A   Overcast
1:35 PM 48.2 °F - 44.6 °F 87% 30.22 in 10.0 mi SW 21.9 mph 32.2 mph N/A   Overcast
1:55 PM 48.2 °F - 44.6 °F 87% 30.22 in 10.0 mi WSW 17.3 mph 25.3 mph N/A   Overcast
2:15 PM 48.2 °F - 44.6 °F 87% 30.21 in 10.0 mi WSW 21.9 mph 26.5 mph N/A   Overcast
2:35 PM 46.4 °F 39.0 °F 44.6 °F 93% 30.22 in 10.0 mi SW 19.6 mph 23.0 mph N/A   Overcast
2:55 PM 46.4 °F 39.5 °F 44.6 °F 93% 30.22 in 10.0 mi SW 17.3 mph 24.2 mph N/A   Overcast
3:15 PM 46.4 °F 39.0 °F 44.6 °F 93% 30.21 in 10.0 mi SW 19.6 mph 28.8 mph N/A   Overcast
3:35 PM 46.4 °F 39.2 °F 44.6 °F 93% 30.21 in 7.0 mi SW 18.4 mph 23.0 mph N/A   Overcast
3:55 PM 46.4 °F 39.5 °F 46.4 °F 100% 30.22 in 5.0 mi SW 17.3 mph 26.5 mph N/A   Overcast
4:15 PM 46.4 °F 41.1 °F 46.4 °F 100% 30.21 in 7.0 mi SW 11.5 mph - N/A   Overcast
4:35 PM 46.4 °F 38.7 °F 46.4 °F 100% 30.21 in 10.0 mi SW 20.7 mph 25.3 mph N/A   Overcast
4:55 PM 48.2 °F - 46.4 °F 93% 30.21 in 10.0 mi SW 15.0 mph - N/A   Overcast
5:15 PM 46.4 °F 39.5 °F 46.4 °F 100% 30.21 in 7.0 mi SW 17.3 mph 23.0 mph N/A Rain Light Rain
5:35 PM 46.4 °F 39.8 °F 46.4 °F 100% 30.21 in 2.5 mi SW 16.1 mph 23.0 mph N/A Rain Rain
5:55 PM 48.2 °F - 48.2 °F 100% 30.21 in 7.0 mi SW 15.0 mph 23.0 mph N/A   Overcast
6:15 PM 48.2 °F - 48.2 °F 100% 30.21 in 4.0 mi SW 17.3 mph 26.5 mph N/A Rain Light Rain
6:35 PM 48.2 °F - 48.2 °F 100% 30.22 in 10.0 mi SW 16.1 mph 19.6 mph N/A Rain Light Rain
6:55 PM 50.0 °F - 48.2 °F 94% 30.22 in 10.0 mi SW 17.3 mph 24.2 mph N/A   Overcast
7:15 PM 48.2 °F - 48.2 °F 100% 30.23 in 7.0 mi SW 15.0 mph 27.6 mph 0.01 in Rain Light Rain
7:35 PM 48.2 °F - 48.2 °F 100% 30.23 in 7.0 mi WSW 15.0 mph 21.9 mph 0.01 in   Overcast
7:55 PM 48.2 °F - 48.2 °F 100% 30.23 in 10.0 mi SW 13.8 mph 20.7 mph 0.01 in Rain Light Rain
8:15 PM 48.2 °F - 48.2 °F 100% 30.23 in 10.0 mi SW 12.7 mph - N/A   Overcast
8:35 PM 48.2 °F - 48.2 °F 100% 30.23 in 10.0 mi SW 12.7 mph - N/A Rain Light Rain
8:55 PM 48.2 °F - 48.2 °F 100% 30.23 in 7.0 mi SW 11.5 mph 17.3 mph N/A Rain Light Rain
9:15 PM 48.2 °F - 48.2 °F 100% 30.22 in 5.0 mi SW 11.5 mph - N/A Rain Light Rain
9:35 PM 48.2 °F - 48.2 °F 100% 30.22 in 5.0 mi SW 12.7 mph 17.3 mph 0.01 in Rain Light Rain
9:55 PM 48.2 °F - 48.2 °F 100% 30.22 in 10.0 mi SW 13.8 mph - 0.02 in   Overcast
10:15 PM 48.2 °F - 48.2 °F 100% 30.22 in 10.0 mi WSW 12.7 mph - N/A   Overcast
10:35 PM 50.0 °F - 50.0 °F 100% 30.22 in 10.0 mi WSW 11.5 mph - N/A   Overcast
10:55 PM 50.0 °F - 50.0 °F 100% 30.21 in 10.0 mi WSW 12.7 mph - N/A   Overcast
11:15 PM 48.2 °F - 48.2 °F 100% 30.22 in 10.0 mi WSW 15.0 mph - N/A   Overcast
11:35 PM 50.0 °F - 50.0 °F 100% 30.22 in 10.0 mi SW 15.0 mph 20.7 mph N/A   Overcast
11:55 PM 50.0 °F - 50.0 °F 100% 30.22 in 10.0 mi WSW 12.7 mph - N/A   Overcast